Time;durP1;ratioP1;P1;durP2;ratioP2;P2;SDS_P1;SDS_P2;PMS_P1;PMS_P2;Temp;Humidity;BMP_temperature;BMP_pressure;BME280_temperature;BME280_humidity;BME280_pressure;Samples;Min_cycle;Max_cycle;Signal;HPM_P1;HPM_P2
2024/03/19 00:02:21;;;;;;;20.00;14.57;;;;;;;9.72;100.00;98312.41;4988167;28;20038;-71
2024/03/19 00:04:46;;;;;;;16.52;12.02;;;;;;;9.64;100.00;98330.50;4960299;28;20452;-70
2024/03/19 00:07:12;;;;;;;19.52;12.80;;;;;;;9.73;100.00;98326.19;4960783;28;20038;-71
2024/03/19 00:09:37;;;;;;;18.60;13.10;;;;;;;9.74;100.00;98322.66;4973700;28;20035;-70
2024/03/19 00:12:03;;;;;;;21.60;13.15;;;;;;;9.72;100.00;98327.19;4963517;28;20332;-70
2024/03/19 00:14:28;;;;;;;24.25;15.80;;;;;;;9.73;100.00;98315.81;4964475;28;20483;-70
2024/03/19 00:16:54;;;;;;;19.15;13.63;;;;;;;9.46;100.00;98325.28;4964112;28;20034;-71
2024/03/19 00:19:19;;;;;;;23.02;13.73;;;;;;;9.46;100.00;98325.28;4980652;28;20379;-71
2024/03/19 00:21:45;;;;;;;18.65;13.10;;;;;;;9.40;100.00;98313.69;4957059;28;20049;-71
2024/03/19 00:24:11;;;;;;;18.50;12.88;;;;;;;9.41;100.00;98315.31;4964934;28;20107;-71
2024/03/19 00:26:39;;;;;;;16.90;12.35;;;;;;;9.48;100.00;98307.78;4969815;28;20042;-71
2024/03/19 00:29:07;;;;;;;18.83;12.65;;;;;;;9.52;100.00;98316.09;4965631;28;20057;-70
2024/03/19 00:31:32;;;;;;;16.70;12.02;;;;;;;9.49;100.00;98306.81;4978431;28;20057;-70
2024/03/19 00:34:01;;;;;;;19.45;11.82;;;;;;;9.15;100.00;98267.66;4971511;28;20129;-70
2024/03/19 00:36:26;;;;;;;18.23;11.50;;;;;;;9.30;100.00;98325.06;4966803;28;20044;-71
2024/03/19 00:38:52;;;;;;;14.40;10.30;;;;;;;9.14;100.00;98323.91;4976197;28;20042;-70
2024/03/19 00:41:20;;;;;;;16.25;10.35;;;;;;;8.88;100.00;98292.59;4957586;28;20041;-71
2024/03/19 00:43:48;;;;;;;13.38;9.50;;;;;;;9.28;100.00;98339.97;4952550;28;20089;-71
2024/03/19 00:46:13;;;;;;;19.40;10.10;;;;;;;9.24;100.00;98331.66;4959527;28;20061;-70
2024/03/19 00:48:38;;;;;;;15.55;9.73;;;;;;;9.29;100.00;98334.66;4940480;28;20509;-71
2024/03/19 00:51:06;;;;;;;15.57;9.38;;;;;;;9.03;100.00;98288.63;4948098;28;20038;-70
2024/03/19 00:53:31;;;;;;;14.75;9.52;;;;;;;9.13;100.00;98308.50;4971432;28;20072;-71
2024/03/19 00:55:57;;;;;;;14.45;9.45;;;;;;;8.84;100.00;98296.44;4961628;28;20125;-70
2024/03/19 00:58:22;;;;;;;15.27;9.82;;;;;;;8.82;100.00;98275.84;4949407;28;20039;-72
2024/03/19 01:00:48;;;;;;;14.57;9.23;;;;;;;8.84;100.00;98286.88;4948054;28;20038;-71
2024/03/19 01:03:14;;;;;;;13.85;9.38;;;;;;;8.82;100.00;98269.84;4957294;28;20062;-71
2024/03/19 01:05:40;;;;;;;14.70;9.02;;;;;;;9.16;100.00;98314.22;4950385;28;20046;-70
2024/03/19 01:08:07;;;;;;;13.93;8.88;;;;;;;9.04;100.00;98321.34;4956465;28;20054;-71
2024/03/19 01:10:37;;;;;;;15.48;9.55;;;;;;;9.09;100.00;98314.91;4969190;28;20129;-70
2024/03/19 01:13:03;;;;;;;14.23;9.07;;;;;;;9.09;100.00;98310.56;4956808;28;20130;-71
2024/03/19 01:15:29;;;;;;;14.68;9.55;;;;;;;9.09;100.00;98304.53;4963813;28;20084;-70
2024/03/19 01:17:59;;;;;;;16.00;9.75;;;;;;;9.04;100.00;98297.19;4969710;28;20093;-72
2024/03/19 01:20:27;;;;;;;14.70;9.60;;;;;;;8.88;100.00;98258.09;4955297;28;20034;-70
2024/03/19 01:22:52;;;;;;;14.00;10.02;;;;;;;8.94;100.00;98294.63;4964938;28;20033;-72
2024/03/19 01:25:20;;;;;;;15.35;10.38;;;;;;;8.79;100.00;98290.88;4955656;28;20749;-71
2024/03/19 01:27:49;;;;;;;15.45;9.65;;;;;;;8.43;100.00;98252.63;4960178;28;20026;-69
2024/03/19 01:30:16;;;;;;;16.13;10.30;;;;;;;8.68;100.00;98285.84;4950245;28;20346;-70
2024/03/19 01:32:41;;;;;;;16.48;9.80;;;;;;;8.74;100.00;98282.69;4968704;28;20742;-72
2024/03/19 01:35:07;;;;;;;16.90;10.00;;;;;;;8.78;100.00;98284.88;4931475;28;20132;-70
2024/03/19 01:37:32;;;;;;;14.32;9.60;;;;;;;8.88;100.00;98279.66;4972111;28;20138;-71
2024/03/19 01:39:59;;;;;;;17.10;10.68;;;;;;;8.86;100.00;98278.97;4948270;28;20627;-69
2024/03/19 01:42:26;;;;;;;15.10;10.10;;;;;;;8.59;100.00;98238.25;4962630;28;20146;-69
2024/03/19 01:45:10;;;;;;;15.15;9.73;;;;;;;8.89;100.00;98273.50;4969748;28;20030;-70
2024/03/19 01:47:36;;;;;;;18.33;10.68;;;;;;;8.79;100.00;98254.56;4972800;28;20030;-72
2024/03/19 01:50:09;;;;;;;15.43;9.43;;;;;;;8.79;100.00;98264.94;4970010;28;20041;-70
2024/03/19 01:52:38;;;;;;;15.38;9.38;;;;;;;8.54;100.00;98219.72;4962598;28;20065;-70
2024/03/19 01:55:04;;;;;;;12.88;8.38;;;;;;;8.75;100.00;98258.41;4983789;28;20038;-70
2024/03/19 01:57:30;;;;;;;14.65;9.02;;;;;;;8.67;100.00;98269.50;4959894;28;20181;-70
2024/03/19 01:59:55;;;;;;;17.50;8.95;;;;;;;8.53;100.00;98259.56;4979434;28;20038;-69
2024/03/19 02:02:34;;;;;;;15.40;9.27;;;;;;;8.41;100.00;98264.03;4990738;28;20148;-69
2024/03/19 02:05:01;;;;;;;;;;;;;;;8.45;100.00;98257.66;4993277;28;20038;-70
2024/03/19 02:07:27;;;;;;;14.82;9.18;;;;;;;8.22;100.00;98228.66;4974539;28;19975;-70
2024/03/19 02:09:55;;;;;;;14.93;9.52;;;;;;;8.47;100.00;98258.34;4979943;28;20709;-69
2024/03/19 02:12:21;;;;;;;15.95;8.30;;;;;;;8.32;100.00;98264.88;4973626;28;20038;-70
2024/03/19 02:14:47;;;;;;;12.80;7.88;;;;;;;8.33;100.00;98269.94;4965739;28;20667;-70
2024/03/19 02:17:12;;;;;;;12.55;8.15;;;;;;;8.34;100.00;98268.16;4954659;28;20042;-71
2024/03/19 02:19:40;;;;;;;13.73;7.47;;;;;;;8.24;100.00;98270.75;4964349;28;20037;-71
2024/03/19 02:22:09;;;;;;;12.23;7.30;;;;;;;8.23;100.00;98295.00;4983563;28;20077;-71
2024/03/19 02:24:37;;;;;;;12.35;7.88;;;;;;;8.34;100.00;98289.72;4961891;28;20555;-70
2024/03/19 02:27:03;;;;;;;12.38;7.65;;;;;;;8.22;100.00;98286.44;4968234;28;20042;-70
2024/03/19 02:29:28;;;;;;;12.93;8.02;;;;;;;8.25;100.00;98280.16;4979036;28;20116;-69
2024/03/19 02:31:59;;;;;;;12.93;7.75;;;;;;;8.28;100.00;98295.44;4978251;28;20066;-69
2024/03/19 02:34:25;;;;;;;16.85;8.90;;;;;;;8.22;100.00;98286.44;4976470;28;20371;-70
2024/03/19 02:36:51;;;;;;;17.73;8.35;;;;;;;8.23;100.00;98276.88;4977666;28;20034;-70
2024/03/19 02:39:16;;;;;;;13.82;8.68;;;;;;;8.11;100.00;98245.16;4975102;28;20046;-70
2024/03/19 02:41:44;;;;;;;13.02;8.38;;;;;;;8.08;100.00;98248.00;4990283;28;20767;-71
2024/03/19 02:44:09;;;;;;;14.70;8.65;;;;;;;7.97;100.00;98225.66;4973221;28;20061;-71
2024/03/19 02:46:37;;;;;;;12.45;8.25;;;;;;;8.02;100.00;98227.84;4961651;28;20404;-70
2024/03/19 02:49:03;;;;;;;13.82;8.07;;;;;;;8.32;100.00;98278.66;4959660;28;20049;-70
2024/03/19 02:51:29;;;;;;;12.35;8.23;;;;;;;8.14;100.00;98278.56;4965730;28;20038;-69
2024/03/19 02:53:57;;;;;;;13.60;7.63;;;;;;;8.13;100.00;98271.72;4979626;28;20037;-70
2024/03/19 02:56:22;;;;;;;13.00;7.90;;;;;;;7.98;100.00;98278.28;4985994;28;20127;-70
2024/03/19 02:58:47;;;;;;;11.57;8.10;;;;;;;8.11;100.00;98288.38;4964628;28;21000;-70
2024/03/19 03:01:14;;;;;;;15.95;8.43;;;;;;;8.15;100.00;98292.31;4981352;28;20165;-70
2024/03/19 03:03:43;;;;;;;20.42;8.95;;;;;;;8.02;100.00;98245.97;4971930;28;20088;-70
2024/03/19 03:06:09;;;;;;;13.90;8.82;;;;;;;8.20;100.00;98282.34;4975144;28;20084;-70
2024/03/19 03:08:36;;;;;;;13.80;8.00;;;;;;;7.97;100.00;98274.84;4972699;28;20524;-70
2024/03/19 03:11:04;;;;;;;13.68;8.20;;;;;;;8.03;100.00;98278.66;4969807;28;20038;-70
2024/03/19 03:13:30;;;;;;;12.60;8.02;;;;;;;8.06;100.00;98278.41;5001629;28;20030;-71
2024/03/19 03:15:56;;;;;;;13.35;8.50;;;;;;;8.20;100.00;98272.81;4980830;28;20060;-70
2024/03/19 03:18:26;;;;;;;14.95;8.82;;;;;;;8.23;100.00;98287.25;4979511;28;20065;-71
2024/03/19 03:20:52;;;;;;;13.07;8.38;;;;;;;7.89;100.00;98252.25;4959599;28;20078;-72
2024/03/19 03:23:17;;;;;;;13.82;7.75;;;;;;;8.16;100.00;98292.16;4989589;28;20125;-71
2024/03/19 03:25:45;;;;;;;11.88;7.85;;;;;;;8.15;100.00;98282.75;4963966;28;20049;-70
2024/03/19 03:28:13;;;;;;;12.45;7.03;;;;;;;8.12;100.00;98287.38;4988063;28;20042;-70
2024/03/19 03:30:39;;;;;;;13.13;7.55;;;;;;;8.11;100.00;98278.00;4965896;28;20034;-70
2024/03/19 03:33:04;;;;;;;14.38;7.78;;;;;;;8.07;100.00;98285.22;4985397;28;20046;-70
2024/03/19 03:35:30;;;;;;;13.00;7.60;;;;;;;8.02;100.00;98293.38;4973465;28;20034;-70
2024/03/19 03:37:57;;;;;;;13.23;7.75;;;;;;;7.74;100.00;98240.66;4965428;28;20038;-70
2024/03/19 03:40:24;;;;;;;13.13;7.63;;;;;;;8.13;100.00;98295.03;4982587;28;20132;-70
2024/03/19 03:42:51;;;;;;;11.57;7.07;;;;;;;7.77;100.00;98239.56;4957651;28;20058;-70
2024/03/19 03:45:24;;;;;;;13.10;7.55;;;;;;;7.39;100.00;98210.13;4968999;28;20030;-70
2024/03/19 03:47:49;;;;;;;14.50;8.30;;;;;;;7.86;100.00;98295.69;4988427;28;20034;-70
2024/03/19 03:50:17;;;;;;;13.40;8.63;;;;;;;7.83;100.00;98288.19;4983079;28;20115;-70
2024/03/19 03:52:45;;;;;;;13.25;8.65;;;;;;;7.82;100.00;98300.31;4985557;28;20045;-70
2024/03/19 03:55:11;;;;;;;14.13;8.75;;;;;;;7.66;100.00;98298.25;4961635;28;20038;-70
2024/03/19 03:57:38;;;;;;;13.10;8.38;;;;;;;7.64;100.00;98299.34;4984834;28;20041;-70
2024/03/19 04:00:11;;;;;;;14.43;8.40;;;;;;;7.75;100.00;98299.22;4982918;28;20033;-69
2024/03/19 04:02:38;;;;;;;15.95;9.55;;;;;;;7.71;100.00;98287.50;4993638;28;20123;-70
2024/03/19 04:05:04;;;;;;;15.55;8.73;;;;;;;7.82;100.00;98292.56;4975834;28;20503;-69
2024/03/19 04:07:32;;;;;;;14.25;8.25;;;;;;;7.48;100.00;98256.72;4970623;28;20492;-69
2024/03/19 04:09:59;;;;;;;14.07;8.85;;;;;;;7.84;100.00;98307.97;4975906;28;20568;-70
2024/03/19 04:12:25;;;;;;;13.85;9.05;;;;;;;7.80;100.00;98307.41;4978522;28;20044;-69
2024/03/19 04:14:53;;;;;;;15.20;9.07;;;;;;;7.67;100.00;98293.91;4978204;28;20057;-71
2024/03/19 04:17:18;;;;;;;12.77;8.35;;;;;;;7.69;100.00;98299.78;4973698;28;20112;-70
2024/03/19 04:19:46;;;;;;;14.00;8.60;;;;;;;7.48;100.00;98300.69;4986849;28;20044;-71
2024/03/19 04:22:11;;;;;;;12.88;8.25;;;;;;;7.65;100.00;98308.75;4969973;28;20049;-70
2024/03/19 04:24:39;;;;;;;13.98;8.63;;;;;;;7.68;100.00;98318.81;4964574;28;20042;-70
2024/03/19 04:27:04;;;;;;;15.55;8.68;;;;;;;7.58;100.00;98318.81;4972484;28;20611;-70
2024/03/19 04:29:32;;;;;;;13.27;9.23;;;;;;;7.52;100.00;98290.91;4962211;28;20035;-70
2024/03/19 04:31:57;;;;;;;14.75;9.25;;;;;;;7.60;100.00;98316.91;4976987;28;20631;-70
2024/03/19 04:34:23;;;;;;;13.40;8.63;;;;;;;7.58;100.00;98328.34;4976652;28;20112;-70
2024/03/19 04:36:48;;;;;;;13.40;8.70;;;;;;;7.51;100.00;98334.03;4960402;28;20107;-70
2024/03/19 04:39:16;;;;;;;13.57;8.90;;;;;;;7.36;100.00;98319.84;4957687;28;20131;-70
2024/03/19 04:41:44;;;;;;;15.13;8.65;;;;;;;7.51;100.00;98339.22;4972755;28;20040;-70
2024/03/19 04:44:11;;;;;;;16.20;8.40;;;;;;;7.47;100.00;98340.44;4954669;28;20045;-70
2024/03/19 04:46:39;;;;;;;16.73;9.30;;;;;;;7.59;100.00;98341.13;4975203;28;20046;-71
2024/03/19 04:49:05;;;;;;;13.80;8.68;;;;;;;7.61;100.00;98335.84;4957137;28;20042;-70
2024/03/19 04:51:31;;;;;;;13.95;9.25;;;;;;;7.29;100.00;98348.00;4961870;28;20764;-70
2024/03/19 04:54:01;;;;;;;14.25;8.57;;;;;;;7.32;100.00;98359.88;4975673;28;20038;-71
2024/03/19 04:56:29;;;;;;;13.88;8.55;;;;;;;7.22;100.00;98341.69;4973683;28;20100;-70
2024/03/19 04:58:55;;;;;;;13.98;7.78;;;;;;;7.17;100.00;98358.56;4976935;28;20046;-70
2024/03/19 05:01:22;;;;;;;15.25;8.85;;;;;;;7.34;100.00;98355.38;4972373;28;20042;-70
2024/03/19 05:03:49;;;;;;;16.75;9.25;;;;;;;7.09;100.00;98315.25;4970723;28;20034;-69
2024/03/19 05:06:15;;;;;;;12.77;7.85;;;;;;;7.36;100.00;98356.06;4986799;28;20035;-70
2024/03/19 05:08:43;;;;;;;14.43;9.35;;;;;;;6.97;100.00;98316.28;4978364;28;20545;-70
2024/03/19 05:11:13;;;;;;;12.60;8.85;;;;;;;7.38;100.00;98361.91;4959802;28;20121;-70
2024/03/19 05:13:38;;;;;;;13.57;8.98;;;;;;;7.35;100.00;98349.25;4970366;28;20030;-73
2024/03/19 05:16:10;;;;;;;18.48;9.88;;;;;;;7.15;100.00;98312.13;4969957;28;20123;-71
2024/03/19 05:18:38;;;;;;;15.65;9.13;;;;;;;7.48;100.00;98372.28;4958301;28;20101;-70
2024/03/19 05:21:04;;;;;;;15.30;9.90;;;;;;;7.11;100.00;98342.59;4995225;28;20053;-70
2024/03/19 05:23:29;;;;;;;13.73;8.90;;;;;;;7.45;100.00;98373.38;4987369;28;20038;-70
2024/03/19 05:25:54;;;;;;;15.60;9.45;;;;;;;7.54;100.00;98381.28;4973879;28;20791;-71
2024/03/19 05:28:20;;;;;;;14.60;9.48;;;;;;;7.41;100.00;98377.19;4962604;28;20030;-70
2024/03/19 05:30:45;;;;;;;14.50;9.18;;;;;;;7.38;100.00;98376.63;4961754;28;20038;-70
2024/03/19 05:33:10;;;;;;;14.55;9.30;;;;;;;7.30;100.00;98372.09;4971712;28;20033;-70
2024/03/19 05:35:36;;;;;;;13.57;9.07;;;;;;;7.19;100.00;98382.50;4955813;28;20532;-71
2024/03/19 05:38:02;;;;;;;15.55;9.73;;;;;;;7.06;100.00;98388.72;4960127;28;20039;-69
2024/03/19 05:40:27;;;;;;;17.90;9.80;;;;;;;6.90;100.00;98349.59;4961298;28;20034;-70
2024/03/19 05:42:53;;;;;;;15.57;10.40;;;;;;;7.17;100.00;98390.41;4975975;28;20049;-70
2024/03/19 05:45:18;;;;;;;15.90;9.95;;;;;;;7.13;100.00;98389.03;4951124;28;20652;-69
2024/03/19 05:47:44;;;;;;;15.40;9.25;;;;;;;7.08;100.00;98394.59;4977998;28;20046;-70
2024/03/19 05:50:10;;;;;;;13.32;8.75;;;;;;;7.16;100.00;98404.28;4958547;28;20042;-70
2024/03/19 05:52:42;;;;;;;15.50;9.20;;;;;;;7.17;100.00;98392.97;4983673;28;20495;-71
2024/03/19 05:55:09;;;;;;;15.77;9.48;;;;;;;7.39;100.00;98401.53;4973227;28;20663;-69
2024/03/19 05:57:35;;;;;;;18.08;9.55;;;;;;;7.31;100.00;98394.41;4979596;28;20496;-72
2024/03/19 06:00:00;;;;;;;15.43;9.43;;;;;;;7.39;100.00;98389.44;4960372;28;20037;-70
2024/03/19 06:02:26;;;;;;;15.52;10.43;;;;;;;7.51;100.00;98398.72;4956485;28;20740;-70
2024/03/19 06:04:54;;;;;;;16.65;10.07;;;;;;;7.55;100.00;98408.81;4977437;28;20390;-70
2024/03/19 06:07:22;;;;;;;14.85;9.07;;;;;;;7.51;100.00;98406.47;4964565;28;20169;-70
2024/03/19 06:09:47;;;;;;;15.38;9.50;;;;;;;7.41;100.00;98399.63;4975989;28;20869;-70
2024/03/19 06:12:18;;;;;;;17.17;9.63;;;;;;;7.40;100.00;98403.19;4980111;28;20037;-69
2024/03/19 06:14:45;;;;;;;14.77;9.38;;;;;;;7.40;100.00;98398.00;4975549;28;20030;-70
2024/03/19 06:17:11;;;;;;;17.20;9.85;;;;;;;7.41;100.00;98408.22;4994607;28;20048;-69
2024/03/19 06:19:36;;;;;;;17.02;10.20;;;;;;;7.57;100.00;98414.69;4957582;28;20034;-70
2024/03/19 06:22:01;;;;;;;17.55;10.45;;;;;;;7.50;100.00;98415.22;4972039;28;20068;-69
2024/03/19 06:24:27;;;;;;;14.85;9.73;;;;;;;7.49;100.00;98392.88;4977599;28;20474;-69
2024/03/19 06:26:53;;;;;;;15.55;10.65;;;;;;;7.47;100.00;98412.88;4978552;28;20074;-70
2024/03/19 06:29:21;;;;;;;17.70;10.45;;;;;;;7.39;100.00;98415.31;4982639;28;20401;-69
2024/03/19 06:31:47;;;;;;;17.20;10.25;;;;;;;7.25;100.00;98374.25;4977264;28;20076;-70
2024/03/19 06:34:14;;;;;;;18.58;10.48;;;;;;;7.23;100.00;98376.16;4994652;28;20042;-71
2024/03/19 06:36:45;;;;;;;17.00;10.52;;;;;;;7.27;100.00;98388.69;4989158;28;20053;-69
2024/03/19 06:39:15;;;;;;;18.05;10.60;;;;;;;7.57;100.00;98418.09;4981567;28;20045;-70
2024/03/19 06:41:43;;;;;;;16.63;9.88;;;;;;;7.55;100.00;98432.91;4961480;28;20174;-69
2024/03/19 06:44:08;;;;;;;17.35;10.68;;;;;;;7.53;100.00;98434.81;4972361;28;20042;-70
2024/03/19 06:46:34;;;;;;;16.15;10.07;;;;;;;7.34;100.00;98412.28;4961790;28;20074;-70
2024/03/19 06:49:02;;;;;;;15.20;9.98;;;;;;;7.58;100.00;98439.63;4957069;28;20046;-71
2024/03/19 06:51:27;;;;;;;16.73;10.52;;;;;;;7.49;100.00;98429.09;4960686;28;20516;-70
2024/03/19 06:53:53;;;;;;;16.70;10.20;;;;;;;7.58;100.00;98445.59;4960739;28;20046;-70
2024/03/19 06:56:19;;;;;;;18.65;10.88;;;;;;;7.68;100.00;98443.88;4979459;28;20540;-71
2024/03/19 06:58:47;;;;;;;20.65;11.10;;;;;;;7.34;100.00;98394.19;4975239;28;20046;-71
2024/03/19 07:01:13;;;;;;;15.38;10.23;;;;;;;7.55;100.00;98434.69;4978316;28;20043;-70
2024/03/19 07:03:40;;;;;;;18.83;11.40;;;;;;;7.29;100.00;98441.09;4969430;28;20025;-70
2024/03/19 07:06:07;;;;;;;18.63;11.57;;;;;;;7.04;100.00;98447.47;4975288;28;20491;-71
2024/03/19 07:08:35;;;;;;;17.58;10.38;;;;;;;6.91;100.00;98397.75;4973707;28;20034;-69
2024/03/19 07:11:00;;;;;;;18.60;10.05;;;;;;;7.34;100.00;98437.31;4974404;28;20117;-70
2024/03/19 07:13:26;;;;;;;16.88;10.35;;;;;;;7.54;100.00;98443.38;4978573;28;20044;-71
2024/03/19 07:15:53;;;;;;;16.30;9.75;;;;;;;7.46;100.00;98407.81;4977076;28;20456;-70
2024/03/19 07:18:22;;;;;;;16.55;10.68;;;;;;;7.75;100.00;98446.75;4963102;28;20129;-70
2024/03/19 07:20:47;;;;;;;16.92;10.40;;;;;;;7.83;100.00;98443.50;4995019;28;20425;-71
2024/03/19 07:23:13;;;;;;;16.45;10.10;;;;;;;7.73;100.00;98402.06;4963248;28;20044;-70
2024/03/19 07:25:38;;;;;;;17.73;11.55;;;;;;;7.66;100.00;98400.97;4967499;28;20034;-70
2024/03/19 07:28:06;;;;;;;17.30;10.35;;;;;;;7.99;100.00;98451.59;4959599;28;20041;-70
2024/03/19 07:30:34;;;;;;;17.67;10.65;;;;;;;8.03;100.00;98449.56;4954065;28;20034;-69
2024/03/19 07:33:02;;;;;;;16.83;10.38;;;;;;;8.17;100.00;98456.97;4980043;28;20045;-70
2024/03/19 07:35:28;;;;;;;15.70;10.40;;;;;;;8.15;100.00;98461.47;4993116;28;20038;-70
2024/03/19 07:37:54;;;;;;;14.98;10.05;;;;;;;8.03;100.00;98459.91;4980468;28;20038;-71
2024/03/19 07:40:20;;;;;;;17.92;10.85;;;;;;;8.19;100.00;98472.38;4985577;28;20030;-69
2024/03/19 07:42:48;;;;;;;17.13;10.52;;;;;;;8.24;100.00;98462.44;4961270;28;20054;-71
2024/03/19 07:45:14;;;;;;;15.43;10.32;;;;;;;8.28;100.00;98467.19;4980048;28;20037;-70
2024/03/19 07:47:39;;;;;;;16.25;10.27;;;;;;;8.38;100.00;98471.59;4963600;28;20658;-70
2024/03/19 07:50:07;;;;;;;16.65;10.55;;;;;;;8.32;100.00;98464.34;4972342;28;20121;-70
2024/03/19 07:52:34;;;;;;;15.85;10.25;;;;;;;8.26;100.00;98471.69;4958969;28;20042;-70
2024/03/19 07:55:06;;;;;;;18.00;10.77;;;;;;;8.32;100.00;98464.34;4960617;28;20034;-73
2024/03/19 07:57:31;;;;;;;16.45;10.93;;;;;;;8.39;100.00;98471.44;4985529;28;20565;-70
2024/03/19 07:59:58;;;;;;;20.60;12.20;;;;;;;8.47;100.00;98470.84;4960958;28;20034;-69
2024/03/19 08:02:23;;;;;;;17.60;10.65;;;;;;;8.49;100.00;98471.50;4974497;28;20683;-71
2024/03/19 08:04:52;;;;;;;15.80;10.90;;;;;;;8.33;100.00;98464.22;4971572;28;20052;-70
2024/03/19 08:07:18;;;;;;;19.50;11.55;;;;;;;8.33;100.00;98477.19;4981896;28;20128;-71
2024/03/19 08:09:44;;;;;;;14.93;9.90;;;;;;;8.38;100.00;98479.38;4956650;28;20038;-69
2024/03/19 08:12:09;;;;;;;16.25;10.60;;;;;;;8.45;100.00;98478.72;4980800;28;20084;-70
2024/03/19 08:14:37;;;;;;;18.50;11.05;;;;;;;8.31;100.00;98439.41;4971279;28;20037;-70
2024/03/19 08:17:03;;;;;;;16.55;11.23;;;;;;;8.55;100.00;98477.94;4994624;28;20860;-71
2024/03/19 08:19:32;;;;;;;18.40;11.05;;;;;;;8.34;100.00;98467.63;4967122;28;20038;-70
2024/03/19 08:22:04;;;;;;;16.27;10.63;;;;;;;8.36;100.00;98463.97;4995636;28;20120;-69
2024/03/19 08:24:32;;;;;;;16.38;10.80;;;;;;;8.46;100.00;98472.59;4959146;28;20566;-70
2024/03/19 08:27:00;;;;;;;19.85;10.90;;;;;;;8.56;100.00;98482.97;4970985;28;20536;-69
2024/03/19 08:29:26;;;;;;;16.75;10.75;;;;;;;8.64;100.00;98482.28;4967830;28;20511;-70
2024/03/19 08:31:51;;;;;;;20.48;11.63;;;;;;;8.25;100.00;98440.75;4985809;28;20030;-70
2024/03/19 08:34:17;;;;;;;22.27;11.52;;;;;;;8.55;100.00;98480.53;4958839;28;20046;-70
2024/03/19 08:36:45;;;;;;;21.73;12.20;;;;;;;8.74;100.00;98495.25;4967395;28;20045;-70
2024/03/19 08:39:13;;;;;;;16.90;10.77;;;;;;;8.74;100.00;98498.66;4980024;28;20037;-70
2024/03/19 08:41:39;;;;;;;15.98;10.05;;;;;;;8.72;100.00;98495.38;4997032;28;20034;-70
2024/03/19 08:44:07;;;;;;;14.27;9.65;;;;;;;8.66;100.00;98496.75;4976364;28;20527;-69
2024/03/19 08:46:32;;;;;;;15.38;8.93;;;;;;;8.73;100.00;98493.63;4954705;28;20073;-69
2024/03/19 08:48:58;;;;;;;16.05;8.30;;;;;;;8.83;100.00;98495.28;4971686;28;20117;-69
2024/03/19 08:51:23;;;;;;;13.70;8.55;;;;;;;9.00;100.00;98501.53;4967687;28;20034;-69
2024/03/19 08:53:49;;;;;;;13.55;7.72;;;;;;;9.00;100.00;98504.13;4977094;28;20057;-69
2024/03/19 08:56:17;;;;;;;16.90;9.77;;;;;;;9.04;100.00;98504.69;4957033;28;20041;-70
2024/03/19 08:58:43;;;;;;;14.60;9.13;;;;;;;9.13;100.00;98509.03;4976184;28;20033;-68
2024/03/19 09:01:13;;;;;;;18.45;10.90;;;;;;;9.20;100.00;98496.34;4954142;28;20058;-69
2024/03/19 09:03:38;;;;;;;20.95;11.32;;;;;;;9.33;100.00;98509.03;4967530;28;20080;-70
2024/03/19 09:06:04;;;;;;;19.10;11.82;;;;;;;9.34;100.00;98500.28;4974888;28;20147;-68
2024/03/19 09:08:32;;;;;;;21.52;12.30;;;;;;;9.49;100.00;98498.03;4958344;28;20088;-68
2024/03/19 09:10:57;;;;;;;22.05;12.77;;;;;;;9.58;100.00;98486.81;4988661;28;20093;-68
2024/03/19 09:13:25;;;;;;;22.38;12.50;;;;;;;9.65;100.00;98480.09;4971964;28;20453;-69
2024/03/19 09:15:51;;;;;;;20.30;11.13;;;;;;;9.82;100.00;98481.16;4976862;28;20049;-69
2024/03/19 09:18:17;;;;;;;17.70;11.30;;;;;;;10.29;100.00;98481.03;4971426;28;20045;-70
2024/03/19 09:20:42;;;;;;;23.13;14.77;;;;;;;10.78;100.00;98452.13;4971319;28;20052;-70
2024/03/19 09:23:11;;;;;;;24.92;15.43;;;;;;;11.30;100.00;98474.81;4956766;28;20034;-70
2024/03/19 09:25:36;;;;;;;27.48;17.75;;;;;;;11.58;100.00;98483.28;4960188;28;20099;-68
2024/03/19 09:28:02;;;;;;;32.47;21.38;;;;;;;11.79;100.00;98476.88;4984588;28;20046;-69
2024/03/19 09:30:30;;;;;;;42.85;25.85;;;;;;;11.95;100.00;98479.56;4976627;28;20153;-70
2024/03/19 09:32:55;;;;;;;42.40;27.10;;;;;;;11.98;100.00;98475.84;4984296;28;20100;-69
2024/03/19 09:35:23;;;;;;;37.15;25.27;;;;;;;12.09;100.00;98480.78;4991825;28;20647;-69
2024/03/19 09:37:51;;;;;;;44.42;26.25;;;;;;;12.02;100.00;98451.91;4981114;28;20046;-68
2024/03/19 09:40:16;;;;;;;42.85;27.92;;;;;;;12.36;100.00;98477.13;4985135;28;20049;-68
2024/03/19 09:42:42;;;;;;;45.88;29.25;;;;;;;12.43;100.00;98477.28;4954261;28;20067;-68
2024/03/19 09:45:26;;;;;;;47.53;31.13;;;;;;;12.52;100.00;98480.72;4959834;28;20553;-69
2024/03/19 09:47:55;;;;;;;48.15;31.38;;;;;;;12.58;100.00;98461.84;4962874;28;20069;-68
2024/03/19 09:50:21;;;;;;;45.13;29.57;;;;;;;12.69;100.00;98471.97;4976558;28;20694;-67
2024/03/19 09:52:49;;;;;;;44.03;28.75;;;;;;;12.76;100.00;98480.78;4959815;28;20042;-69
2024/03/19 09:55:17;;;;;;;41.25;25.60;;;;;;;12.78;100.00;98478.81;4955889;28;20070;-68
2024/03/19 09:57:46;;;;;;;42.25;26.75;;;;;;;12.96;100.00;98480.44;4966026;28;20065;-68
2024/03/19 10:00:32;;;;;;;44.42;29.13;;;;;;;13.04;100.00;98481.25;4956906;28;20117;-68
2024/03/19 10:03:07;;;;;;;46.72;29.30;;;;;;;13.11;100.00;98480.63;4960137;28;20039;-68
2024/03/19 10:05:37;;;;;;;45.72;30.55;;;;;;;13.08;100.00;98479.94;4940247;28;20104;-68
2024/03/19 10:08:05;;;;;;;46.15;30.38;;;;;;;13.04;100.00;98486.47;4977874;28;20038;-69
2024/03/19 10:10:35;;;;;;;47.38;31.15;;;;;;;12.83;100.00;98439.16;4964348;28;20084;-69
2024/03/19 10:13:03;;;;;;;47.75;30.48;;;;;;;13.11;100.00;98475.41;4961332;28;20085;-68
2024/03/19 10:15:29;;;;;;;46.05;31.15;;;;;;;13.21;100.00;98476.84;4981852;28;20154;-70
2024/03/19 10:17:57;;;;;;;46.17;30.27;;;;;;;13.27;100.00;98478.81;4946805;28;20038;-69
2024/03/19 10:20:24;;;;;;;42.85;29.38;;;;;;;13.34;100.00;98478.16;4966754;28;20746;-68
2024/03/19 10:22:50;;;;;;;39.95;28.30;;;;;;;13.36;100.00;98470.97;4961039;28;20274;-70
2024/03/19 10:25:16;;;;;;;44.22;27.83;;;;;;;13.14;100.00;98439.34;4944491;28;20042;-68
2024/03/19 10:27:42;;;;;;;43.33;29.33;;;;;;;13.32;100.00;98451.41;4958793;28;20069;-68
2024/03/19 10:30:13;;;;;;;42.53;27.83;;;;;;;13.37;100.00;98452.53;4975078;28;20050;-69
2024/03/19 10:32:42;;;;;;;43.55;28.58;;;;;;;13.58;100.00;98480.75;4964723;28;20073;-69
2024/03/19 10:35:24;;;;;;;40.08;27.95;;;;;;;13.66;100.00;98485.13;4960413;28;21460;-68
2024/03/19 10:37:53;;;;;;;47.58;32.58;;;;;;;13.67;100.00;98468.44;4984068;28;20089;-69
2024/03/19 10:40:19;;;;;;;;;;;;;;;13.72;100.00;98481.84;4949223;28;20042;-68
2024/03/19 10:42:47;;;;;;;45.53;28.25;;;;;;;13.72;100.00;98463.53;4949000;28;19933;-69
2024/03/19 10:45:21;;;;;;;44.08;29.50;;;;;;;13.55;100.00;98431.44;4976607;28;20029;-67
2024/03/19 10:47:51;;;;;;;44.63;30.55;;;;;;;13.80;100.00;98450.47;4972603;28;20092;-67
2024/03/19 10:50:18;;;;;;;44.72;29.15;;;;;;;13.95;100.00;98460.22;4981587;28;20087;-69
2024/03/19 10:52:56;;;;;;;41.70;29.38;;;;;;;13.95;100.00;98444.53;4959148;28;20137;-66
2024/03/19 10:55:22;;;;;;;45.67;28.85;;;;;;;13.98;100.00;98446.78;4973124;28;20034;-68
2024/03/19 10:57:48;;;;;;;45.30;31.30;;;;;;;14.09;100.00;98450.81;4979440;28;20063;-69
2024/03/19 11:00:20;;;;;;;45.45;30.88;;;;;;;14.14;100.00;98445.91;4966634;28;20255;-68
2024/03/19 11:02:50;;;;;;;40.80;26.88;;;;;;;14.16;97.31;98441.31;4995572;28;20061;-68
2024/03/19 11:05:22;;;;;;;43.45;28.70;;;;;;;14.22;98.47;98446.66;4972862;28;20093;-66
2024/03/19 11:07:52;;;;;;;45.92;30.20;;;;;;;14.09;99.76;98420.28;4976830;28;20544;-67
2024/03/19 11:10:29;;;;;;;46.83;30.98;;;;;;;14.37;99.20;98441.50;4956585;28;20026;-68
2024/03/19 11:13:03;;;;;;;44.78;28.92;;;;;;;14.43;97.15;98451.28;4964169;28;20074;-68
2024/03/19 11:15:33;;;;;;;44.28;31.70;;;;;;;14.44;98.88;98439.03;4978881;28;20045;-69
2024/03/19 11:18:19;;;;;;;49.72;31.42;;;;;;;14.59;97.64;98449.59;4977361;28;20044;-69
2024/03/19 11:20:53;;;;;;;44.25;30.77;;;;;;;14.61;97.48;98450.22;4979725;28;20038;-70